Time;durP1;ratioP1;P1;durP2;ratioP2;P2;SDS_P1;SDS_P2;PMS_P1;PMS_P2;Temp;Humidity;BMP_temperature;BMP_pressure;BME280_temperature;BME280_humidity;BME280_pressure;Samples;Min_cycle;Max_cycle;Signal;HPM_P1;HPM_P2
2022/03/01 00:01:18;;;;;;;18.60;11.25;;;;;;;1.77;61.79;101761.69;6046485;23;20047;-94
2022/03/01 00:08:12;;;;;;;22.25;11.23;;;;;;;1.77;61.30;101770.38;6070185;23;20505;-95
2022/03/01 00:11:13;;;;;;;19.73;11.38;;;;;;;1.88;61.34;101793.16;6197528;23;20027;-94
2022/03/01 00:13:42;;;;;;;17.98;10.40;;;;;;;2.11;60.63;101828.22;6242580;22;20032;-94
2022/03/01 00:16:15;;;;;;;20.25;10.63;;;;;;;1.78;60.76;101768.66;6245894;23;20024;-95
2022/03/01 00:18:48;;;;;;;22.33;11.20;;;;;;;1.76;60.12;101772.97;6245013;23;20012;-95
2022/03/01 00:21:29;;;;;;;;;;;;;;;;;;;;;
2022/03/01 00:24:05;;;;;;;17.63;10.15;;;;;;;1.87;60.40;101802.72;6247954;23;20017;-95
2022/03/01 00:26:49;;;;;;;18.00;9.80;;;;;;;1.73;60.79;101779.03;6247882;23;20483;-95
2022/03/01 00:30:00;;;;;;;;;;;;;;;;;;;;;
2022/03/01 00:32:51;;;;;;;19.30;10.52;;;;;;;1.90;60.38;101814.91;6230408;23;20060;-94
2022/03/01 00:35:40;;;;;;;;;;;;;;;;;;;;;
2022/03/01 00:38:16;;;;;;;;;;;;;;;2.19;58.81;101852.72;6247509;23;20031;-94
2022/03/01 00:40:58;;;;;;;16.40;9.30;;;;;;;2.20;58.75;101854.47;6248983;23;19994;-95
2022/03/01 00:44:00;;;;;;;;;;;;;;;;;;;;;
2022/03/01 00:46:53;;;;;;;17.17;10.02;;;;;;;1.91;58.97;101827.13;6249105;23;20020;-94
2022/03/01 00:49:57;;;;;;;18.42;10.00;;;;;;;1.75;58.99;101793.00;6253605;23;20016;-94
2022/03/01 00:53:01;;;;;;;21.20;10.40;;;;;;;1.85;58.06;101803.56;6257641;23;20016;-96
2022/03/01 00:56:06;;;;;;;;;;;;;;;;;;;;;
2022/03/01 00:58:54;;;;;;;19.08;10.52;;;;;;;2.01;57.56;101813.31;6258584;23;20119;-94
2022/03/01 01:01:51;;;;;;;21.60;10.30;;;;;;;1.95;57.03;101814.13;6263501;23;20080;-96
2022/03/01 01:04:55;;;;;;;;;;;;;;;;;;;;;
2022/03/01 01:07:53;;;;;;;19.33;10.60;;;;;;;2.14;56.26;101843.06;6245751;23;20094;-94
2022/03/01 01:10:41;;;;;;;20.42;10.23;;;;;;;1.89;55.69;101794.91;6248421;23;20034;-95
2022/03/01 01:13:20;;;;;;;18.58;11.05;;;;;;;2.32;55.20;101859.81;6248774;22;20016;-95
2022/03/01 01:16:05;;;;;;;17.90;10.27;;;;;;;1.96;55.70;101794.97;6246905;23;20094;-95
2022/03/01 01:19:11;;;;;;;22.98;10.75;;;;;;;2.36;55.51;101855.50;6246074;23;20325;-94
2022/03/01 01:25:52;;;;;;;;;;;;;;;;;;;;;
2022/03/01 01:28:56;;;;;;;;;;;;;;;;;;;;;
2022/03/01 01:31:51;;;;;;;18.63;10.52;;;;;;;1.80;55.85;101786.97;6098704;23;20077;-94
2022/03/01 01:34:52;;;;;;;;;;;;;;;;;;;;;
2022/03/01 01:37:46;;;;;;;19.55;10.88;;;;;;;1.99;54.80;101815.03;6119200;23;20026;-96
2022/03/01 01:40:46;;;;;;;;;;;;;;;;;;;;;
2022/03/01 01:43:22;;;;;;;20.80;10.95;;;;;;;2.18;54.69;101856.19;6246089;23;20016;-95
2022/03/01 01:46:05;;;;;;;;;;;;;;;;;;;;;
2022/03/01 01:49:11;;;;;;;22.75;10.70;;;;;;;1.79;54.46;101780.84;6245994;23;20020;-96
2022/03/01 01:52:11;;;;;;;;;;;;;;;;;;;;;
2022/03/01 01:54:45;;;;;;;20.42;10.43;;;;;;;2.14;53.68;101823.03;6247836;22;20019;-96
2022/03/01 01:57:20;;;;;;;22.90;11.20;;;;;;;2.27;54.03;101844.94;6246801;23;20019;-96
2022/03/01 02:00:00;;;;;;;20.63;10.60;;;;;;;2.13;54.29;101830.84;6248714;23;20044;-95
2022/03/01 02:03:01;;;;;;;;;;;;;;;;;;;;;
2022/03/01 02:05:36;;;;;;;;;;;;;;;2.16;54.00;101859.63;6228306;23;20020;-96
2022/03/01 02:08:21;;;;;;;20.38;10.40;;;;;;;1.99;54.09;101833.31;6256128;22;19965;-95
2022/03/01 02:11:15;;;;;;;;;;;;;;;;;;;;;
2022/03/01 02:13:52;;;;;;;20.60;10.88;;;;;;;2.11;53.21;101828.22;6265230;22;20024;-96
2022/03/01 02:16:36;;;;;;;22.35;11.07;;;;;;;1.96;54.03;101826.31;6263812;23;20023;-96
2022/03/01 02:19:33;;;;;;;21.25;10.80;;;;;;;1.75;54.50;101805.19;6240120;23;20046;-96
2022/03/01 02:22:18;;;;;;;21.27;11.27;;;;;;;1.81;54.15;101820.06;6261501;23;20024;-95
2022/03/01 02:25:06;;;;;;;21.83;11.27;;;;;;;1.75;54.00;101807.78;6243862;23;20024;-96
2022/03/01 02:27:38;;;;;;;22.63;11.27;;;;;;;1.69;54.93;101802.53;6247433;23;20016;-96
2022/03/01 02:30:10;;;;;;;22.20;11.80;;;;;;;1.52;54.04;101770.09;6246737;23;20051;-96
2022/03/01 02:32:51;;;;;;;23.45;11.75;;;;;;;1.65;54.92;101796.38;6248164;23;20032;-96
2022/03/01 02:35:57;;;;;;;22.33;10.98;;;;;;;1.70;54.22;101793.81;6249703;23;20020;-95
2022/03/01 02:38:40;;;;;;;21.15;10.80;;;;;;;1.80;53.49;101813.06;6245319;23;20010;-95
2022/03/01 02:41:13;;;;;;;24.33;11.95;;;;;;;1.65;54.23;101795.50;6247315;23;20018;-96
2022/03/01 02:43:53;;;;;;;27.25;12.13;;;;;;;1.72;53.85;101792.13;6246050;23;19996;-95
2022/03/01 02:46:47;;;;;;;24.50;11.02;;;;;;;1.77;54.71;101809.56;6247445;23;20026;-95
2022/03/01 02:49:20;;;;;;;23.00;11.75;;;;;;;1.54;54.72;101786.66;6245316;23;20019;-95
2022/03/01 02:52:01;;;;;;;24.02;11.50;;;;;;;1.49;55.58;101794.44;6247471;23;20024;-96
2022/03/01 02:54:38;;;;;;;22.80;11.00;;;;;;;1.24;55.35;101771.50;6248143;23;20093;-96
2022/03/01 02:57:44;;;;;;;;;;;;;;;;;;;;;
2022/03/01 03:00:35;;;;;;;23.20;11.18;;;;;;;1.00;56.58;101772.91;6231203;23;20019;-95
2022/03/01 03:03:26;;;;;;;23.15;11.25;;;;;;;0.97;56.71;101767.66;6248396;23;20099;-96
2022/03/01 03:09:36;;;;;;;25.35;11.27;;;;;;;1.02;58.27;101797.28;6248821;23;20020;-94
2022/03/01 03:12:33;;;;;;;20.42;11.00;;;;;;;0.67;58.83;101768.09;6099720;23;20041;-96
2022/03/01 03:15:15;;;;;;;22.88;11.30;;;;;;;0.59;59.46;101766.22;6071415;23;20022;-96
2022/03/01 03:17:59;;;;;;;22.85;11.13;;;;;;;0.99;59.08;101828.53;6095122;23;20018;-96
2022/03/01 03:20:43;;;;;;;16.98;7.95;;;;;;;0.56;59.00;101774.88;6094403;23;20027;-95
2022/03/01 03:23:35;;;;;;;;;;;;;;;;;;;;;
2022/03/01 03:26:23;;;;;;;;;;;;;;;;;;;;;
2022/03/01 03:29:11;;;;;;;22.23;11.02;;;;;;;0.73;59.71;101837.72;6092133;23;20047;-95
2022/03/01 03:32:09;;;;;;;23.30;10.75;;;;;;;0.49;59.91;101800.78;6215142;23;20021;-95
2022/03/01 03:35:12;;;;;;;20.30;11.10;;;;;;;0.47;60.13;101800.81;6176810;23;20024;-96
2022/03/01 03:38:06;;;;;;;24.13;11.02;;;;;;;0.45;59.95;101796.41;6192073;23;20043;-96
2022/03/01 03:40:55;;;;;;;27.80;11.35;;;;;;;0.61;59.78;101827.09;6216137;23;20016;-96
2022/03/01 03:43:34;;;;;;;24.17;11.82;;;;;;;0.27;59.58;101763.97;6215439;23;20070;-96
2022/03/01 03:46:20;;;;;;;;;;;;;;;;;;;;;
2022/03/01 03:49:27;;;;;;;24.00;11.43;;;;;;;0.57;59.34;101794.88;6209628;23;20096;-95
2022/03/01 03:52:06;;;;;;;21.95;11.07;;;;;;;0.54;59.16;101799.16;6213068;23;20009;-94
2022/03/01 03:54:46;;;;;;;23.80;10.93;;;;;;;0.38;59.17;101763.28;6231321;23;20011;-96
2022/03/01 03:57:36;;;;;;;23.30;11.30;;;;;;;0.48;59.18;101786.88;6193875;23;20020;-96
2022/03/01 04:00:22;;;;;;;20.38;10.93;;;;;;;0.68;58.62;101821.09;6235618;23;20020;-96
2022/03/01 04:02:57;;;;;;;20.70;11.02;;;;;;;0.66;58.38;101804.56;6199623;23;20020;-96
2022/03/01 04:05:59;;;;;;;;;;;;;;;;;;;;;
2022/03/01 04:08:36;;;;;;;23.05;11.23;;;;;;;0.70;58.05;101819.41;6220344;23;20024;-96
2022/03/01 04:11:36;;;;;;;;;;;;;;;;;;;;;
2022/03/01 04:14:17;;;;;;;;;;;;;;;;;;;;;
2022/03/01 04:16:46;;;;;;;20.27;10.70;;;;;;;0.41;58.74;101799.81;6264035;23;20024;-96
2022/03/01 04:19:22;;;;;;;21.17;10.82;;;;;;;0.45;59.06;101799.91;6256431;23;20040;-95
2022/03/01 04:22:04;;;;;;;23.83;11.57;;;;;;;0.37;59.09;101800.59;6256276;23;20047;-96
2022/03/01 04:24:34;;;;;;;21.83;10.82;;;;;;;0.55;58.77;101826.97;6229840;23;20095;-96
2022/03/01 04:27:03;;;;;;;19.00;9.07;;;;;;;0.42;58.26;101786.81;6261030;23;20515;-96
2022/03/01 04:29:56;;;;;;;21.58;11.63;;;;;;;0.45;58.36;101796.41;6236455;23;20023;-95
2022/03/01 04:32:42;;;;;;;22.00;11.43;;;;;;;0.17;58.32;101763.78;6257229;22;20020;-96
2022/03/01 04:35:27;;;;;;;;;;;;;;;;;;;;;
2022/03/01 04:38:12;;;;;;;22.60;11.68;;;;;;;0.40;58.32;101798.06;6248704;23;20043;-96
2022/03/01 04:40:59;;;;;;;23.80;11.85;;;;;;;0.12;58.48;101771.53;6247044;23;20023;-96
2022/03/01 04:43:45;;;;;;;23.67;11.45;;;;;;;0.17;59.25;101788.09;6225571;23;20031;-94
2022/03/01 04:46:19;;;;;;;24.80;12.38;;;;;;;0.32;58.98;101817.03;6251125;23;20044;-95
2022/03/01 04:49:09;;;;;;;;;;;;;;;;;;;;;
2022/03/01 04:51:53;;;;;;;26.30;12.15;;;;;;;-0.07;59.59;101754.69;6236485;23;20043;-96
2022/03/01 04:54:58;;;;;;;23.67;11.57;;;;;;;0.01;59.31;101752.22;6224828;23;20022;-96
2022/03/01 04:57:36;;;;;;;23.10;11.65;;;;;;;-0.04;59.16;101749.56;6248454;23;20020;-96
2022/03/01 05:00:37;;;;;;;23.23;11.73;;;;;;;0.09;59.54;101766.25;6229576;23;20218;-96
2022/03/01 06:26:28;;;;;;;24.75;12.70;;;;;;;-0.65;64.59;101799.56;5800080;22;10946746;-96
2022/03/01 06:28:58;;;;;;;22.92;12.15;;;;;;;-0.59;64.53;101810.06;6254726;23;20020;-94
2022/03/01 06:31:43;;;;;;;26.00;11.95;;;;;;;-0.51;65.05;101824.13;6250812;23;20079;-92
2022/03/01 06:34:25;;;;;;;26.23;12.20;;;;;;;-0.61;64.77;101798.75;6222755;23;20431;-94
2022/03/01 06:37:22;;;;;;;24.70;12.43;;;;;;;-0.52;64.53;101801.56;6254574;23;20024;-94
2022/03/01 06:39:53;;;;;;;22.90;11.93;;;;;;;-0.28;64.85;101842.78;6251566;23;20059;-95
2022/03/01 06:42:22;;;;;;;26.45;12.48;;;;;;;-0.22;65.24;101831.63;6255083;23;20335;-92
2022/03/01 06:44:56;;;;;;;26.50;12.35;;;;;;;-0.24;65.52;101821.19;6252628;23;20020;-94
2022/03/01 06:47:41;;;;;;;24.25;12.60;;;;;;;-0.05;64.59;101851.06;6238610;23;20004;-94
2022/03/01 06:50:18;;;;;;;22.08;12.18;;;;;;;-0.16;64.13;101830.00;6255943;23;20128;-95
2022/03/01 06:52:57;;;;;;;22.17;12.70;;;;;;;0.09;63.67;101870.44;6257226;23;20020;-95
2022/03/01 06:55:27;;;;;;;22.02;11.93;;;;;;;-0.17;63.50;101819.59;6253928;23;20016;-94
2022/03/01 06:57:58;;;;;;;23.98;11.88;;;;;;;-0.02;63.08;101844.22;6250278;23;20294;-94
2022/03/01 07:00:53;;;;;;;25.85;12.38;;;;;;;-0.19;63.15;101814.38;6200635;23;20739;-93
2022/03/01 07:03:24;;;;;;;24.23;12.15;;;;;;;0.18;63.24;101875.81;6247839;23;20023;-95
2022/03/01 07:05:52;;;;;;;23.85;12.60;;;;;;;0.19;63.33;101876.69;6250151;23;20035;-94
2022/03/01 07:11:19;;;;;;;;;;;;;;;;;;;;;
2022/03/01 07:13:53;;;;;;;23.45;12.23;;;;;;;-0.07;62.77;101825.00;6246951;23;20099;-94
2022/03/01 07:16:23;;;;;;;23.15;11.38;;;;;;;0.28;62.75;101882.09;6255076;23;20039;-94
2022/03/01 07:18:54;;;;;;;23.02;12.57;;;;;;;0.14;62.97;101866.22;6264671;23;20016;-95
2022/03/01 07:21:24;;;;;;;24.98;12.18;;;;;;;-0.04;62.56;101827.69;6263917;23;20455;-96
2022/03/01 07:23:54;;;;;;;26.88;12.30;;;;;;;0.03;62.15;101832.97;6259702;23;20004;-94
2022/03/01 07:26:32;;;;;;;21.08;11.60;;;;;;;0.03;62.11;101832.97;6237298;23;20047;-93
2022/03/01 07:29:20;;;;;;;25.50;12.43;;;;;;;0.27;62.02;101865.59;6213741;23;20023;-96
2022/03/01 07:31:52;;;;;;;24.10;12.15;;;;;;;0.14;62.03;101828.88;6261523;23;20046;-96
2022/03/01 07:34:23;;;;;;;23.80;12.27;;;;;;;0.27;61.68;101843.88;6255617;23;20046;-96
2022/03/01 07:36:56;;;;;;;25.40;13.68;;;;;;;0.30;61.18;101826.56;6255743;23;20497;-96
2022/03/01 07:39:23;;;;;;;21.77;12.00;;;;;;;0.34;60.85;101824.88;6254071;23;20012;-96
2022/03/01 07:41:55;;;;;;;24.20;12.25;;;;;;;0.76;60.89;101876.00;6272217;22;20020;-96
2022/03/01 07:44:30;;;;;;;24.67;12.40;;;;;;;0.66;59.96;101854.97;6271293;22;20004;-96
2022/03/01 07:47:09;;;;;;;22.55;12.02;;;;;;;0.84;59.48;101870.03;6271740;23;20004;-96
2022/03/01 07:49:47;;;;;;;23.02;12.13;;;;;;;0.97;58.40;101865.88;6266019;23;20023;-96
2022/03/01 07:52:31;;;;;;;24.25;13.00;;;;;;;0.87;58.15;101833.59;6255693;23;20016;-96
2022/03/01 07:55:24;;;;;;;22.52;11.73;;;;;;;0.94;58.41;101843.28;6268923;22;20035;-96
2022/03/01 07:58:01;;;;;;;21.90;11.52;;;;;;;1.20;58.00;101868.84;6259473;23;20416;-94
2022/03/01 08:00:40;;;;;;;26.13;13.18;;;;;;;1.16;57.73;101830.53;6257974;23;20382;-96
2022/03/01 08:03:30;;;;;;;20.15;9.93;;;;;;;1.53;57.42;101866.72;6258767;23;20020;-95
2022/03/01 08:06:00;;;;;;;22.73;12.43;;;;;;;1.73;57.32;101878.28;6248252;23;20020;-95
2022/03/01 08:08:34;;;;;;;24.80;12.57;;;;;;;1.72;56.94;101858.28;6249177;23;20020;-95
2022/03/01 08:11:04;;;;;;;;;;;;;;;2.02;56.38;101885.63;6253394;23;20166;-95
2022/03/01 08:13:42;;;;;;;23.15;12.00;;;;;;;2.04;55.05;101857.78;6254691;23;20022;-94
2022/03/01 08:16:15;;;;;;;23.95;10.85;;;;;;;2.26;51.15;101866.69;6249551;23;20020;-96
2022/03/01 08:18:45;;;;;;;19.17;10.88;;;;;;;2.12;50.77;101840.44;6247285;23;20024;-95
2022/03/01 08:21:14;;;;;;;21.15;11.18;;;;;;;2.27;49.64;101839.72;6220186;23;20024;-96
2022/03/01 08:23:56;;;;;;;21.52;11.20;;;;;;;2.39;54.88;101851.16;6247235;23;20086;-96
2022/03/01 08:26:33;;;;;;;19.70;11.18;;;;;;;2.80;52.64;101882.06;6220718;23;20554;-95
2022/03/01 08:29:06;;;;;;;24.58;11.05;;;;;;;2.60;50.35;101826.94;6242037;23;20032;-96
2022/03/01 08:31:52;;;;;;;21.55;11.85;;;;;;;3.02;48.08;101891.81;6250738;23;20087;-95
2022/03/01 08:34:36;;;;;;;21.17;11.23;;;;;;;2.97;47.94;101858.63;6252165;23;20020;-95
2022/03/01 08:38:02;;;;;;;19.95;11.13;;;;;;;2.79;48.33;101836.72;6251323;23;20016;-95
2022/03/01 08:40:40;;;;;;;23.55;12.05;;;;;;;3.36;50.41;101903.41;6253556;23;20020;-94
2022/03/01 08:43:13;;;;;;;21.15;11.18;;;;;;;3.29;50.59;101837.91;6257752;23;20048;-94
2022/03/01 08:45:56;;;;;;;23.63;12.15;;;;;;;3.99;47.57;101886.25;6256475;23;20024;-94
2022/03/01 08:48:45;;;;;;;21.65;11.00;;;;;;;4.28;47.02;101852.25;6258856;23;20099;-93
2022/03/01 08:51:20;;;;;;;19.55;11.75;;;;;;;5.03;47.50;101889.94;6253462;23;20113;-94
2022/03/01 08:54:00;;;;;;;20.95;11.52;;;;;;;5.55;43.06;101847.81;6255450;23;20020;-94
2022/03/01 08:56:43;;;;;;;18.13;11.13;;;;;;;6.02;41.34;101842.38;6266460;23;20080;-94
2022/03/01 08:59:12;;;;;;;18.60;11.63;;;;;;;6.26;40.11;101849.28;6252583;23;20047;-93
2022/03/01 09:01:40;;;;;;;15.98;10.55;;;;;;;6.31;40.70;101815.91;6248328;23;20043;-93
2022/03/01 09:04:08;;;;;;;18.25;11.13;;;;;;;6.83;38.55;101839.19;6249000;23;20004;-93
2022/03/01 09:06:35;;;;;;;18.48;10.90;;;;;;;7.07;37.08;101844.25;6221869;23;20016;-93
2022/03/01 09:09:04;;;;;;;19.70;11.23;;;;;;;7.05;37.29;101819.69;6222778;23;20085;-95
2022/03/01 09:11:36;;;;;;;14.98;10.15;;;;;;;7.33;37.19;101822.91;6246071;23;20036;-93
2022/03/01 09:14:04;;;;;;;17.80;10.40;;;;;;;7.37;35.74;101828.13;6219705;23;20020;-93
2022/03/01 09:16:34;;;;;;;15.75;9.60;;;;;;;7.55;35.78;101823.53;6247212;23;20020;-95
2022/03/01 09:19:40;;;;;;;15.98;9.18;;;;;;;8.14;34.70;101843.88;6251753;23;20027;-96
2022/03/01 09:22:09;;;;;;;14.55;9.88;;;;;;;8.28;34.01;101812.00;6252695;23;20748;-96
2022/03/01 09:24:50;;;;;;;16.27;9.77;;;;;;;8.81;32.92;101811.19;6253394;23;20078;-95
2022/03/01 09:27:24;;;;;;;16.52;10.05;;;;;;;8.44;33.19;101814.41;6250274;23;20016;-95
2022/03/01 09:29:51;;;;;;;17.33;9.65;;;;;;;8.20;33.69;101812.09;6247415;23;20028;-92
2022/03/01 09:32:32;;;;;;;;;;;;;;;7.97;33.66;101843.22;6206165;23;20393;-94
2022/03/01 09:35:02;;;;;;;17.88;9.82;;;;;;;7.48;34.85;101841.19;6231034;23;19994;-94
2022/03/01 09:37:33;;;;;;;17.50;10.02;;;;;;;7.03;35.50;101816.19;6259327;23;20016;-95
2022/03/01 09:40:06;;;;;;;14.48;9.48;;;;;;;6.72;36.34;101809.47;6262607;23;20005;-96
2022/03/01 09:42:41;;;;;;;17.35;9.50;;;;;;;6.30;35.86;101774.69;6262693;23;20095;-93
2022/03/01 09:45:19;;;;;;;15.77;9.52;;;;;;;6.48;36.63;101829.81;6222217;22;20020;-96
2022/03/01 09:47:56;;;;;;;17.35;9.85;;;;;;;6.40;36.60;101799.19;6233119;23;20017;-95
2022/03/01 09:50:42;;;;;;;19.70;10.23;;;;;;;6.90;35.54;101804.03;6229467;23;20072;-95
2022/03/01 09:53:42;;;;;;;16.02;9.57;;;;;;;7.64;34.11;101810.25;6207650;23;20021;-96
2022/03/01 09:56:25;;;;;;;14.35;9.00;;;;;;;8.03;33.13;101759.56;6219657;23;20067;-95
2022/03/01 09:59:14;;;;;;;15.25;8.95;;;;;;;9.01;32.37;101785.25;6225584;23;20013;-96
2022/03/01 10:05:46;;;;;;;15.43;9.45;;;;;;;9.84;29.81;101814.44;6160569;23;20052;-96
2022/03/01 10:08:24;;;;;;;;;;;;;;;9.83;30.30;101825.06;6187445;23;20096;-93
2022/03/01 10:10:55;;;;;;;15.75;9.13;;;;;;;9.58;30.72;101769.16;6165003;23;20612;-94
2022/03/01 10:13:36;;;;;;;14.32;9.55;;;;;;;9.98;29.31;101786.81;6191518;23;20946;-94
2022/03/01 10:16:18;;;;;;;14.50;9.23;;;;;;;10.27;29.32;101828.53;6183080;23;20843;-94
2022/03/01 10:18:58;;;;;;;14.15;9.20;;;;;;;10.62;29.19;101825.06;6184388;23;20091;-96
2022/03/01 10:21:26;;;;;;;16.05;9.13;;;;;;;10.83;28.22;101804.22;6186971;23;20035;-93
2022/03/01 10:24:22;;;;;;;13.68;9.50;;;;;;;11.53;27.07;101794.31;6171495;23;20071;-95
2022/03/01 10:27:10;;;;;;;14.38;9.30;;;;;;;11.76;26.22;101776.91;6187972;23;20591;-92
2022/03/01 10:29:47;;;;;;;14.38;9.40;;;;;;;11.46;27.17;101784.81;6187759;23;20017;-94
2022/03/01 10:32:27;;;;;;;;;;;;;;;;;;;;;
2022/03/01 10:35:27;;;;;;;15.05;9.23;;;;;;;12.05;26.70;101798.13;6181872;23;20024;-93
2022/03/01 10:37:55;;;;;;;14.32;9.57;;;;;;;11.23;27.25;101758.06;6213625;23;20020;-94
2022/03/01 10:40:31;;;;;;;13.30;9.18;;;;;;;11.14;27.32;101795.44;6219266;23;20047;-92
2022/03/01 10:43:07;;;;;;;15.05;9.10;;;;;;;10.98;27.64;101775.56;6221057;23;20020;-93
2022/03/01 10:45:50;;;;;;;11.50;8.48;;;;;;;11.91;26.44;101782.63;6218726;23;20021;-93
2022/03/01 10:48:34;;;;;;;13.68;8.23;;;;;;;13.00;24.77;101799.41;6222170;23;20127;-95
2022/03/01 10:51:08;;;;;;;13.20;8.48;;;;;;;13.17;24.45;101782.03;6222863;23;20611;-95
2022/03/01 10:53:42;;;;;;;13.55;8.50;;;;;;;13.17;24.43;101752.78;6219999;23;20024;-96
2022/03/01 10:56:37;;;;;;;12.57;8.32;;;;;;;14.09;23.43;101750.13;6219789;23;20016;-93
2022/03/01 10:59:18;;;;;;;;;;;;;;;14.77;22.26;101811.31;6222872;23;20016;-95
2022/03/01 11:01:48;;;;;;;12.20;8.25;;;;;;;14.91;22.21;101760.94;6226477;23;19919;-95
2022/03/01 11:04:21;;;;;;;10.93;8.88;;;;;;;14.59;21.85;101762.28;6214401;23;20020;-93
2022/03/01 11:06:50;;;;;;;13.13;8.65;;;;;;;14.14;23.05;101780.13;6216783;23;20039;-95
2022/03/01 11:09:17;;;;;;;15.40;8.25;;;;;;;14.63;22.61;101811.03;6216301;23;20025;-95
2022/03/01 11:12:18;;;;;;;;;;;;;;;;;;;;;
2022/03/01 11:15:36;;;;;;;;;;;;;;;;;;;;;
2022/03/01 11:18:58;;;;;;;;;;;;;;;;;;;;;
2022/03/01 11:22:26;;;;;;;10.73;7.97;;;;;;;14.36;22.27;101786.31;6201414;23;20017;-95
2022/03/01 11:25:40;;;;;;;11.23;8.18;;;;;;;13.96;22.83;101787.03;6066811;23;20051;-94
2022/03/01 11:28:45;;;;;;;11.13;8.07;;;;;;;12.99;23.83;101723.22;5942153;24;20029;-93
2022/03/01 11:31:38;;;;;;;10.32;8.20;;;;;;;12.21;23.97;101710.88;5874263;24;20022;-94
2022/03/01 11:34:22;;;;;;;11.18;7.82;;;;;;;12.38;24.27;101747.50;5870602;24;20026;-95
2022/03/01 11:36:55;;;;;;;12.30;7.63;;;;;;;12.22;23.85;101731.22;5870117;24;20028;-94
2022/03/01 11:39:35;;;;;;;12.73;8.48;;;;;;;11.64;23.91;101700.31;5871051;24;20022;-95
2022/03/01 11:42:21;;;;;;;11.93;8.07;;;;;;;11.48;24.49;101700.75;5884758;23;20075;-95
2022/03/01 11:44:53;;;;;;;12.90;8.27;;;;;;;11.30;25.33;101730.47;6024671;23;21043;-95
2022/03/01 11:47:34;;;;;;;11.68;7.97;;;;;;;11.31;24.49;101732.22;6123573;23;20041;-95
2022/03/01 11:50:29;;;;;;;13.40;7.68;;;;;;;11.09;25.39;101702.78;6214647;23;20099;-93
2022/03/01 11:53:12;;;;;;;12.85;8.05;;;;;;;11.06;24.88;101694.91;6216267;23;20020;-94
2022/03/01 11:55:54;;;;;;;11.35;7.80;;;;;;;11.19;24.73;101753.75;6213511;23;20028;-94
2022/03/01 11:58:25;;;;;;;12.38;8.32;;;;;;;11.01;24.32;101726.00;6216638;23;20071;-94
2022/03/01 12:00:58;;;;;;;11.50;7.65;;;;;;;10.67;24.24;101688.94;6223191;23;20021;-94
2022/03/01 12:03:30;;;;;;;12.23;8.05;;;;;;;10.48;25.02;101716.81;6218636;23;20016;-94
2022/03/01 12:06:01;;;;;;;11.13;7.90;;;;;;;10.23;26.11;101742.16;6217861;23;20080;-94
2022/03/01 12:08:57;;;;;;;15.02;8.18;;;;;;;9.81;26.67;101694.59;6217387;23;20025;-95
2022/03/01 12:11:46;;;;;;;12.90;8.18;;;;;;;9.63;25.68;101673.84;6217476;23;20021;-94
2022/03/01 12:14:19;;;;;;;13.48;8.15;;;;;;;10.00;24.89;101708.25;6218938;23;20020;-94
2022/03/01 12:16:47;;;;;;;16.95;8.00;;;;;;;9.88;24.21;101664.44;6215107;23;20017;-93
2022/03/01 12:19:20;;;;;;;13.70;7.93;;;;;;;10.32;25.31;101687.19;6217189;23;20246;-89
2022/03/01 12:21:57;;;;;;;14.57;9.40;;;;;;;10.22;25.18;101650.41;6216413;23;20492;-90
2022/03/01 12:24:45;;;;;;;13.25;8.38;;;;;;;10.48;25.09;101691.19;6212375;23;20471;-88
2022/03/01 12:27:13;;;;;;;10.25;7.28;;;;;;;10.38;24.09;101635.88;6213006;23;20055;-89
2022/03/01 12:29:46;;;;;;;10.98;7.38;;;;;;;10.51;23.94;101662.00;6216211;23;20460;-94
2022/03/01 12:35:02;;;;;;;13.43;7.75;;;;;;;10.63;24.13;101671.38;6165896;23;20081;-96
2022/03/01 12:40:46;;;;;;;17.35;8.70;;;;;;;12.08;23.26;101662.63;6247184;22;20110;-93
2022/03/01 12:43:15;;;;;;;12.23;7.80;;;;;;;12.96;22.08;101646.22;6255193;23;20024;-93
2022/03/01 12:45:46;;;;;;;12.77;8.20;;;;;;;13.10;21.45;101586.31;6254594;23;20074;-93
2022/03/01 12:48:17;;;;;;;13.00;8.52;;;;;;;13.73;21.17;101582.06;6249361;23;20008;-93
2022/03/01 12:50:51;;;;;;;10.60;7.53;;;;;;;14.74;20.03;101631.00;6221537;23;20105;-93
2022/03/01 12:53:20;;;;;;;9.98;7.30;;;;;;;15.23;19.59;101638.56;6249544;23;20023;-93
2022/03/01 12:55:54;;;;;;;12.95;8.32;;;;;;;15.55;19.87;101611.25;6245039;23;20020;-94
2022/03/01 12:58:23;;;;;;;13.85;8.55;;;;;;;15.73;19.10;101556.94;6219176;23;20016;-93
2022/03/01 13:01:05;;;;;;;9.80;7.22;;;;;;;16.10;18.83;101603.16;6222006;23;20023;-95
2022/03/01 13:03:53;;;;;;;11.45;7.97;;;;;;;16.53;18.87;101596.44;6165584;23;20049;-95
2022/03/01 13:06:26;;;;;;;11.68;8.45;;;;;;;16.87;17.84;101555.41;6176436;23;20018;-95
2022/03/01 13:08:59;;;;;;;11.65;8.18;;;;;;;16.95;17.73;101604.03;6163399;23;20021;-93
2022/03/01 13:11:44;;;;;;;11.52;7.35;;;;;;;16.96;17.62;101588.84;6153994;23;20014;-92
2022/03/01 13:14:13;;;;;;;11.48;7.75;;;;;;;17.43;17.36;101595.09;6129810;23;20157;-94
2022/03/01 13:16:51;;;;;;;10.18;7.82;;;;;;;17.22;17.94;101568.66;6154766;23;20326;-95
2022/03/01 13:20:00;;;;;;;10.45;8.00;;;;;;;17.96;16.90;101559.00;6139691;23;20077;-95
2022/03/01 14:45:07;;;;;;;12.75;7.30;;;;;;;12.33;21.14;101545.78;6241635;22;20051;-92
2022/03/01 14:47:35;;;;;;;12.55;7.00;;;;;;;12.11;21.63;101537.72;6252996;23;20016;-91
2022/03/01 14:50:08;;;;;;;11.10;7.05;;;;;;;11.62;22.42;101476.63;6225617;23;20038;-91
2022/03/01 14:52:39;;;;;;;13.55;7.20;;;;;;;11.75;21.80;101485.88;6254542;23;20062;-92
2022/03/01 14:55:07;;;;;;;10.60;6.82;;;;;;;11.76;21.79;101508.88;6230235;23;20263;-91
2022/03/01 14:57:35;;;;;;;11.25;6.65;;;;;;;11.72;22.21;101537.25;6232564;23;20018;-92
2022/03/01 15:00:30;;;;;;;12.30;7.60;;;;;;;11.11;22.22;101470.31;6197784;23;20067;-91
2022/03/01 15:03:46;;;;;;;10.40;6.82;;;;;;;11.06;22.81;101519.09;6199925;23;20040;-92
2022/03/01 15:06:18;;;;;;;11.32;7.10;;;;;;;10.60;23.11;101499.28;6195941;23;20057;-93
2022/03/01 15:12:27;;;;;;;13.50;6.55;;;;;;;10.22;23.38;101481.00;6188708;23;20027;-91
2022/03/01 15:14:58;;;;;;;12.02;6.75;;;;;;;10.27;24.68;101521.44;6188581;23;20028;-92
2022/03/01 15:17:50;;;;;;;9.90;6.90;;;;;;;9.78;24.80;101457.44;6200749;23;20027;-92
2022/03/01 15:20:21;;;;;;;12.90;7.25;;;;;;;9.90;24.97;101495.94;6254575;23;20028;-92
2022/03/01 15:22:48;;;;;;;11.05;7.07;;;;;;;9.67;25.35;101483.31;6227736;23;20016;-92
2022/03/01 15:25:29;;;;;;;10.95;7.13;;;;;;;9.78;25.26;101513.00;6226991;23;20046;-94
2022/03/01 15:27:56;;;;;;;13.95;7.28;;;;;;;9.42;24.65;101461.06;6249493;23;20020;-91
2022/03/01 15:30:24;;;;;;;10.93;6.63;;;;;;;9.45;24.83;101488.28;6250141;23;20042;-91
2022/03/01 15:32:51;;;;;;;11.55;6.70;;;;;;;9.44;25.84;101518.25;6250229;23;20012;-92
2022/03/01 15:35:38;;;;;;;12.18;6.82;;;;;;;9.35;26.51;101520.28;6225698;23;20020;-92
2022/03/01 15:38:09;;;;;;;11.30;7.00;;;;;;;9.15;26.39;101494.31;6249532;23;20032;-93
2022/03/01 15:40:41;;;;;;;10.17;6.73;;;;;;;9.12;26.45;101505.84;6250949;23;20016;-92
2022/03/01 15:43:09;;;;;;;9.52;6.32;;;;;;;8.95;26.54;101476.28;6250403;23;20075;-93
2022/03/01 15:45:40;;;;;;;12.52;7.65;;;;;;;8.84;26.61;101475.66;6249327;23;20095;-91
2022/03/01 15:48:07;;;;;;;11.38;7.25;;;;;;;8.95;27.22;101493.91;6224979;23;20016;-91
2022/03/01 15:50:34;;;;;;;12.15;7.32;;;;;;;9.03;27.31;101508.69;6224587;23;20083;-92
2022/03/01 15:53:01;;;;;;;13.07;7.30;;;;;;;8.96;26.75;101504.44;6252180;23;20027;-92
2022/03/01 15:55:29;;;;;;;11.30;7.65;;;;;;;8.98;26.90;101504.38;6222427;23;20098;-91
2022/03/01 15:57:56;;;;;;;12.07;7.47;;;;;;;8.90;26.77;101496.66;6242246;23;20100;-92
2022/03/01 16:00:27;;;;;;;11.55;7.80;;;;;;;8.93;26.71;101491.31;6245683;23;20046;-91
2022/03/01 16:02:54;;;;;;;13.27;7.68;;;;;;;8.99;29.11;101514.06;6246429;23;20384;-94
2022/03/01 16:05:23;;;;;;;14.32;7.38;;;;;;;8.73;30.02;101493.50;6246320;23;20450;-91
2022/03/01 16:07:50;;;;;;;11.48;7.10;;;;;;;8.60;29.90;101498.19;6245780;23;20016;-94
2022/03/01 16:10:17;;;;;;;11.52;7.90;;;;;;;8.43;30.26;101476.56;6221189;23;20016;-92
2022/03/01 16:12:44;;;;;;;12.43;6.85;;;;;;;8.50;31.20;101509.00;6249707;23;20356;-92
2022/03/01 16:15:11;;;;;;;11.32;7.32;;;;;;;8.29;31.43;101479.47;6249088;23;20016;-91
2022/03/01 16:17:44;;;;;;;13.50;7.90;;;;;;;8.20;31.05;101476.13;6248901;23;20023;-93